Julian, California
Current Conditions -  °F | °C
As of 11:53 PM on Tuesday 25 Nov 2014 (Local Time) from KRNM Reporting Station
Clear Clear  
Wind Chill: 42°   Ceiling: Unl
Heat Index: 42°   Visibility: 10mi
Dew Point: 28°   Wind: 3mph
Humidity: 58%   Direction: 140°SE
Pressure: 30.29"   Gusts: NA
Location:  33.08°N, 116.6°W
Report Text: KRNM 260753Z 14003KT 10SM CLR 06/M02 A3029 RMK AO2 SLP248 T00561022 402610039
Loading
Personal Weather Stations






























Interactive Weather Map New forecast layout! Learn more

10-Day Weather Forecast

Advertisements
Track Severe Weather on mobile